sensor_id;sensor_type;location;lat;lon;timestamp;P1;durP1;ratioP1;P2;durP2;ratioP2
24145;SDS011;12308;50.948;4.706;2023-02-23T00:01:54;193.77;;;79.22;;
24145;SDS011;12308;50.948;4.706;2023-02-23T00:04:22;184.15;;;80.28;;
24145;SDS011;12308;50.948;4.706;2023-02-23T00:06:48;186.63;;;78.38;;
24145;SDS011;12308;50.948;4.706;2023-02-23T00:09:17;195.40;;;77.32;;
24145;SDS011;12308;50.948;4.706;2023-02-23T00:11:49;197.35;;;80.47;;
24145;SDS011;12308;50.948;4.706;2023-02-23T00:14:17;192.25;;;79.28;;
24145;SDS011;12308;50.948;4.706;2023-02-23T00:16:43;194.93;;;81.20;;
24145;SDS011;12308;50.948;4.706;2023-02-23T00:19:10;195.38;;;81.32;;
24145;SDS011;12308;50.948;4.706;2023-02-23T00:21:38;183.82;;;76.38;;
24145;SDS011;12308;50.948;4.706;2023-02-23T00:24:09;189.18;;;76.85;;
24145;SDS011;12308;50.948;4.706;2023-02-23T00:26:38;179.95;;;75.97;;
24145;SDS011;12308;50.948;4.706;2023-02-23T00:29:05;183.18;;;75.15;;
24145;SDS011;12308;50.948;4.706;2023-02-23T00:31:33;184.05;;;75.55;;
24145;SDS011;12308;50.948;4.706;2023-02-23T00:34:00;178.00;;;74.60;;
24145;SDS011;12308;50.948;4.706;2023-02-23T00:36:28;191.65;;;77.57;;
24145;SDS011;12308;50.948;4.706;2023-02-23T00:38:56;191.30;;;79.25;;
24145;SDS011;12308;50.948;4.706;2023-02-23T00:41:24;190.50;;;77.88;;
24145;SDS011;12308;50.948;4.706;2023-02-23T00:43:53;189.18;;;79.10;;
24145;SDS011;12308;50.948;4.706;2023-02-23T00:46:21;186.18;;;79.72;;
24145;SDS011;12308;50.948;4.706;2023-02-23T00:48:48;176.98;;;75.13;;
24145;SDS011;12308;50.948;4.706;2023-02-23T00:51:15;189.30;;;78.25;;
24145;SDS011;12308;50.948;4.706;2023-02-23T00:53:42;184.60;;;76.80;;
24145;SDS011;12308;50.948;4.706;2023-02-23T00:56:09;192.45;;;76.53;;
24145;SDS011;12308;50.948;4.706;2023-02-23T00:58:36;193.63;;;77.30;;
24145;SDS011;12308;50.948;4.706;2023-02-23T01:01:09;172.13;;;74.43;;
24145;SDS011;12308;50.948;4.706;2023-02-23T01:03:36;181.25;;;74.18;;
24145;SDS011;12308;50.948;4.706;2023-02-23T01:06:04;178.30;;;75.65;;
24145;SDS011;12308;50.948;4.706;2023-02-23T01:08:31;189.32;;;75.85;;
24145;SDS011;12308;50.948;4.706;2023-02-23T01:11:04;181.88;;;73.47;;
24145;SDS011;12308;50.948;4.706;2023-02-23T01:13:31;181.05;;;74.20;;
24145;SDS011;12308;50.948;4.706;2023-02-23T01:15:57;178.02;;;74.70;;
24145;SDS011;12308;50.948;4.706;2023-02-23T01:18:22;177.50;;;76.43;;
24145;SDS011;12308;50.948;4.706;2023-02-23T01:20:48;169.88;;;73.05;;
24145;SDS011;12308;50.948;4.706;2023-02-23T01:23:15;179.43;;;74.70;;
24145;SDS011;12308;50.948;4.706;2023-02-23T01:25:41;170.85;;;75.00;;
24145;SDS011;12308;50.948;4.706;2023-02-23T01:28:08;174.43;;;73.07;;
24145;SDS011;12308;50.948;4.706;2023-02-23T01:30:35;181.30;;;75.00;;
24145;SDS011;12308;50.948;4.706;2023-02-23T01:33:01;178.02;;;73.57;;
24145;SDS011;12308;50.948;4.706;2023-02-23T01:35:27;180.27;;;74.60;;
24145;SDS011;12308;50.948;4.706;2023-02-23T01:37:53;177.52;;;75.53;;
24145;SDS011;12308;50.948;4.706;2023-02-23T01:40:20;169.15;;;74.00;;
24145;SDS011;12308;50.948;4.706;2023-02-23T01:43:05;181.35;;;71.97;;
24145;SDS011;12308;50.948;4.706;2023-02-23T01:45:37;179.98;;;73.55;;
24145;SDS011;12308;50.948;4.706;2023-02-23T01:50:32;172.07;;;72.38;;
24145;SDS011;12308;50.948;4.706;2023-02-23T01:53:05;178.38;;;74.18;;
24145;SDS011;12308;50.948;4.706;2023-02-23T01:55:31;170.50;;;70.85;;
24145;SDS011;12308;50.948;4.706;2023-02-23T01:58:06;175.35;;;71.45;;
24145;SDS011;12308;50.948;4.706;2023-02-23T02:00:39;165.38;;;69.78;;
24145;SDS011;12308;50.948;4.706;2023-02-23T02:03:12;172.20;;;74.07;;
24145;SDS011;12308;50.948;4.706;2023-02-23T02:05:42;165.73;;;69.10;;
24145;SDS011;12308;50.948;4.706;2023-02-23T02:08:09;171.75;;;70.35;;
24145;SDS011;12308;50.948;4.706;2023-02-23T02:10:36;162.30;;;71.03;;
24145;SDS011;12308;50.948;4.706;2023-02-23T02:13:05;157.10;;;69.07;;
24145;SDS011;12308;50.948;4.706;2023-02-23T02:15:34;163.50;;;69.82;;
24145;SDS011;12308;50.948;4.706;2023-02-23T02:23:40;169.18;;;71.32;;
24145;SDS011;12308;50.948;4.706;2023-02-23T02:29:31;174.98;;;72.40;;
24145;SDS011;12308;50.948;4.706;2023-02-23T02:32:30;173.90;;;69.40;;
24145;SDS011;12308;50.948;4.706;2023-02-23T02:50:57;142.57;;;65.78;;
24145;SDS011;12308;50.948;4.706;2023-02-23T02:56:35;150.02;;;65.78;;
24145;SDS011;12308;50.948;4.706;2023-02-23T02:59:08;146.82;;;67.28;;
24145;SDS011;12308;50.948;4.706;2023-02-23T03:01:56;145.77;;;63.40;;
24145;SDS011;12308;50.948;4.706;2023-02-23T03:04:41;160.35;;;66.78;;
24145;SDS011;12308;50.948;4.706;2023-02-23T03:07:28;164.18;;;67.47;;
24145;SDS011;12308;50.948;4.706;2023-02-23T03:10:27;161.27;;;68.65;;
24145;SDS011;12308;50.948;4.706;2023-02-23T03:19:35;174.35;;;69.80;;
24145;SDS011;12308;50.948;4.706;2023-02-23T03:22:50;190.52;;;70.95;;
24145;SDS011;12308;50.948;4.706;2023-02-23T03:29:11;188.00;;;66.45;;
24145;SDS011;12308;50.948;4.706;2023-02-23T03:38:11;210.00;;;68.45;;
24145;SDS011;12308;50.948;4.706;2023-02-23T03:41:03;230.05;;;69.22;;
24145;SDS011;12308;50.948;4.706;2023-02-23T03:43:52;216.10;;;68.00;;
24145;SDS011;12308;50.948;4.706;2023-02-23T03:46:40;204.40;;;65.63;;
24145;SDS011;12308;50.948;4.706;2023-02-23T03:49:27;193.50;;;65.05;;
24145;SDS011;12308;50.948;4.706;2023-02-23T03:52:19;191.23;;;63.63;;
24145;SDS011;12308;50.948;4.706;2023-02-23T03:55:11;212.48;;;69.88;;
24145;SDS011;12308;50.948;4.706;2023-02-23T03:58:01;202.80;;;69.60;;
24145;SDS011;12308;50.948;4.706;2023-02-23T04:00:50;209.32;;;71.50;;
24145;SDS011;12308;50.948;4.706;2023-02-23T04:03:37;215.35;;;70.18;;
24145;SDS011;12308;50.948;4.706;2023-02-23T04:06:24;208.55;;;62.75;;
24145;SDS011;12308;50.948;4.706;2023-02-23T04:09:11;201.60;;;57.38;;
24145;SDS011;12308;50.948;4.706;2023-02-23T04:12:05;215.13;;;60.70;;
24145;SDS011;12308;50.948;4.706;2023-02-23T04:14:53;222.65;;;64.50;;
24145;SDS011;12308;50.948;4.706;2023-02-23T04:17:36;238.95;;;65.53;;
24145;SDS011;12308;50.948;4.706;2023-02-23T04:20:03;215.98;;;60.13;;
24145;SDS011;12308;50.948;4.706;2023-02-23T04:22:31;220.10;;;64.70;;
24145;SDS011;12308;50.948;4.706;2023-02-23T04:24:57;232.15;;;61.08;;
24145;SDS011;12308;50.948;4.706;2023-02-23T04:27:22;223.77;;;60.88;;
24145;SDS011;12308;50.948;4.706;2023-02-23T04:29:48;227.77;;;61.78;;
24145;SDS011;12308;50.948;4.706;2023-02-23T04:32:16;227.57;;;61.20;;
24145;SDS011;12308;50.948;4.706;2023-02-23T04:34:43;220.88;;;63.38;;
24145;SDS011;12308;50.948;4.706;2023-02-23T04:37:10;228.20;;;61.40;;
24145;SDS011;12308;50.948;4.706;2023-02-23T04:39:37;220.13;;;61.28;;
24145;SDS011;12308;50.948;4.706;2023-02-23T04:42:03;219.40;;;58.40;;
24145;SDS011;12308;50.948;4.706;2023-02-23T04:44:28;214.93;;;58.88;;
24145;SDS011;12308;50.948;4.706;2023-02-23T04:46:55;229.52;;;61.20;;
24145;SDS011;12308;50.948;4.706;2023-02-23T04:49:21;225.02;;;58.70;;
24145;SDS011;12308;50.948;4.706;2023-02-23T04:51:47;223.07;;;59.30;;
24145;SDS011;12308;50.948;4.706;2023-02-23T04:54:13;219.68;;;60.25;;
24145;SDS011;12308;50.948;4.706;2023-02-23T04:56:39;230.20;;;59.30;;
24145;SDS011;12308;50.948;4.706;2023-02-23T04:59:04;231.38;;;59.50;;
24145;SDS011;12308;50.948;4.706;2023-02-23T05:01:30;223.15;;;58.55;;
24145;SDS011;12308;50.948;4.706;2023-02-23T05:03:57;224.70;;;60.22;;
24145;SDS011;12308;50.948;4.706;2023-02-23T05:06:24;234.60;;;60.45;;
24145;SDS011;12308;50.948;4.706;2023-02-23T05:08:50;217.95;;;60.70;;
24145;SDS011;12308;50.948;4.706;2023-02-23T05:11:15;238.32;;;62.30;;
24145;SDS011;12308;50.948;4.706;2023-02-23T05:13:41;229.25;;;59.28;;
24145;SDS011;12308;50.948;4.706;2023-02-23T05:16:07;231.45;;;62.97;;
24145;SDS011;12308;50.948;4.706;2023-02-23T05:18:32;225.48;;;60.40;;
24145;SDS011;12308;50.948;4.706;2023-02-23T05:21:02;239.55;;;62.42;;
24145;SDS011;12308;50.948;4.706;2023-02-23T05:23:30;241.93;;;61.90;;
24145;SDS011;12308;50.948;4.706;2023-02-23T05:26:00;244.43;;;62.60;;
24145;SDS011;12308;50.948;4.706;2023-02-23T05:28:28;233.77;;;62.60;;
24145;SDS011;12308;50.948;4.706;2023-02-23T05:30:54;239.70;;;63.53;;
24145;SDS011;12308;50.948;4.706;2023-02-23T05:33:19;220.70;;;60.47;;
24145;SDS011;12308;50.948;4.706;2023-02-23T05:35:46;236.05;;;62.47;;
24145;SDS011;12308;50.948;4.706;2023-02-23T05:38:12;227.90;;;60.67;;
24145;SDS011;12308;50.948;4.706;2023-02-23T05:40:37;223.88;;;60.60;;
24145;SDS011;12308;50.948;4.706;2023-02-23T05:43:04;216.82;;;58.78;;
24145;SDS011;12308;50.948;4.706;2023-02-23T05:45:29;212.38;;;59.38;;
24145;SDS011;12308;50.948;4.706;2023-02-23T05:47:55;215.88;;;58.90;;
24145;SDS011;12308;50.948;4.706;2023-02-23T05:50:21;212.02;;;58.05;;
24145;SDS011;12308;50.948;4.706;2023-02-23T05:52:46;199.65;;;57.78;;
24145;SDS011;12308;50.948;4.706;2023-02-23T05:55:12;206.55;;;57.38;;
24145;SDS011;12308;50.948;4.706;2023-02-23T05:57:38;202.45;;;57.78;;
24145;SDS011;12308;50.948;4.706;2023-02-23T06:00:05;201.93;;;58.90;;
24145;SDS011;12308;50.948;4.706;2023-02-23T06:02:31;205.55;;;58.85;;
24145;SDS011;12308;50.948;4.706;2023-02-23T06:04:58;202.35;;;58.78;;
24145;SDS011;12308;50.948;4.706;2023-02-23T06:07:24;201.43;;;58.42;;
24145;SDS011;12308;50.948;4.706;2023-02-23T06:09:50;189.65;;;55.17;;
24145;SDS011;12308;50.948;4.706;2023-02-23T06:12:16;184.20;;;56.83;;
24145;SDS011;12308;50.948;4.706;2023-02-23T06:14:41;197.40;;;57.42;;
24145;SDS011;12308;50.948;4.706;2023-02-23T06:17:07;186.13;;;54.80;;
24145;SDS011;12308;50.948;4.706;2023-02-23T06:19:33;195.77;;;57.20;;
24145;SDS011;12308;50.948;4.706;2023-02-23T06:21:58;195.65;;;56.55;;
24145;SDS011;12308;50.948;4.706;2023-02-23T06:24:24;199.50;;;59.92;;
24145;SDS011;12308;50.948;4.706;2023-02-23T06:26:50;200.88;;;59.30;;
24145;SDS011;12308;50.948;4.706;2023-02-23T06:29:16;197.77;;;58.35;;
24145;SDS011;12308;50.948;4.706;2023-02-23T06:31:41;208.93;;;58.65;;
24145;SDS011;12308;50.948;4.706;2023-02-23T06:34:07;189.73;;;57.42;;
24145;SDS011;12308;50.948;4.706;2023-02-23T06:36:34;202.30;;;58.53;;
24145;SDS011;12308;50.948;4.706;2023-02-23T06:39:01;203.93;;;60.47;;
24145;SDS011;12308;50.948;4.706;2023-02-23T06:41:27;207.90;;;62.55;;
24145;SDS011;12308;50.948;4.706;2023-02-23T06:43:53;227.73;;;63.03;;
24145;SDS011;12308;50.948;4.706;2023-02-23T06:46:19;224.05;;;62.90;;
24145;SDS011;12308;50.948;4.706;2023-02-23T06:48:45;215.95;;;63.13;;
24145;SDS011;12308;50.948;4.706;2023-02-23T06:51:11;208.50;;;60.17;;
24145;SDS011;12308;50.948;4.706;2023-02-23T06:53:36;228.25;;;62.20;;
24145;SDS011;12308;50.948;4.706;2023-02-23T06:56:02;204.75;;;61.50;;
24145;SDS011;12308;50.948;4.706;2023-02-23T06:58:29;218.52;;;60.28;;
24145;SDS011;12308;50.948;4.706;2023-02-23T07:00:55;200.52;;;59.85;;
24145;SDS011;12308;50.948;4.706;2023-02-23T07:03:22;200.82;;;56.35;;
24145;SDS011;12308;50.948;4.706;2023-02-23T07:05:48;189.48;;;55.28;;
24145;SDS011;12308;50.948;4.706;2023-02-23T07:08:16;202.13;;;56.83;;
24145;SDS011;12308;50.948;4.706;2023-02-23T07:10:43;205.70;;;59.80;;
24145;SDS011;12308;50.948;4.706;2023-02-23T07:13:09;186.20;;;54.10;;
24145;SDS011;12308;50.948;4.706;2023-02-23T07:15:37;185.85;;;54.97;;
24145;SDS011;12308;50.948;4.706;2023-02-23T07:18:04;211.82;;;60.70;;
24145;SDS011;12308;50.948;4.706;2023-02-23T07:20:31;204.55;;;60.13;;
24145;SDS011;12308;50.948;4.706;2023-02-23T07:22:57;210.73;;;59.83;;
24145;SDS011;12308;50.948;4.706;2023-02-23T07:25:25;212.95;;;64.97;;
24145;SDS011;12308;50.948;4.706;2023-02-23T07:27:52;224.60;;;67.13;;
24145;SDS011;12308;50.948;4.706;2023-02-23T07:32:49;228.35;;;64.00;;
24145;SDS011;12308;50.948;4.706;2023-02-23T07:35:15;217.70;;;62.42;;
24145;SDS011;12308;50.948;4.706;2023-02-23T07:37:41;214.90;;;64.43;;
24145;SDS011;12308;50.948;4.706;2023-02-23T07:40:07;227.90;;;65.38;;
24145;SDS011;12308;50.948;4.706;2023-02-23T07:42:34;234.55;;;66.45;;
24145;SDS011;12308;50.948;4.706;2023-02-23T07:45:00;225.38;;;65.25;;
24145;SDS011;12308;50.948;4.706;2023-02-23T07:47:25;229.77;;;65.40;;
24145;SDS011;12308;50.948;4.706;2023-02-23T07:49:58;233.70;;;65.85;;
24145;SDS011;12308;50.948;4.706;2023-02-23T07:54:52;214.15;;;64.65;;
24145;SDS011;12308;50.948;4.706;2023-02-23T07:57:18;212.85;;;63.92;;
24145;SDS011;12308;50.948;4.706;2023-02-23T07:59:44;220.15;;;65.78;;
24145;SDS011;12308;50.948;4.706;2023-02-23T08:02:13;214.25;;;65.15;;
24145;SDS011;12308;50.948;4.706;2023-02-23T08:04:40;208.52;;;62.85;;
24145;SDS011;12308;50.948;4.706;2023-02-23T08:07:07;219.40;;;64.10;;
24145;SDS011;12308;50.948;4.706;2023-02-23T08:09:34;224.15;;;64.18;;
24145;SDS011;12308;50.948;4.706;2023-02-23T08:12:00;219.57;;;65.43;;
24145;SDS011;12308;50.948;4.706;2023-02-23T08:14:26;214.07;;;65.10;;
24145;SDS011;12308;50.948;4.706;2023-02-23T08:16:52;207.55;;;62.70;;
24145;SDS011;12308;50.948;4.706;2023-02-23T08:19:18;203.55;;;64.63;;
24145;SDS011;12308;50.948;4.706;2023-02-23T08:21:50;217.43;;;66.57;;
24145;SDS011;12308;50.948;4.706;2023-02-23T08:24:16;207.40;;;62.45;;
24145;SDS011;12308;50.948;4.706;2023-02-23T08:26:42;206.63;;;65.07;;
24145;SDS011;12308;50.948;4.706;2023-02-23T08:29:08;216.95;;;67.35;;
24145;SDS011;12308;50.948;4.706;2023-02-23T08:31:34;203.05;;;60.80;;
24145;SDS011;12308;50.948;4.706;2023-02-23T08:34:00;210.13;;;64.15;;
24145;SDS011;12308;50.948;4.706;2023-02-23T08:36:26;196.80;;;61.95;;
24145;SDS011;12308;50.948;4.706;2023-02-23T08:38:52;206.60;;;65.50;;
24145;SDS011;12308;50.948;4.706;2023-02-23T08:41:18;219.27;;;64.60;;
24145;SDS011;12308;50.948;4.706;2023-02-23T08:43:45;210.98;;;63.45;;
24145;SDS011;12308;50.948;4.706;2023-02-23T08:46:11;192.80;;;59.35;;
24145;SDS011;12308;50.948;4.706;2023-02-23T08:48:37;199.55;;;61.85;;
24145;SDS011;12308;50.948;4.706;2023-02-23T08:51:05;201.32;;;60.45;;
24145;SDS011;12308;50.948;4.706;2023-02-23T08:53:32;188.88;;;59.63;;
24145;SDS011;12308;50.948;4.706;2023-02-23T08:55:58;196.57;;;61.78;;
24145;SDS011;12308;50.948;4.706;2023-02-23T08:58:25;203.98;;;63.13;;
24145;SDS011;12308;50.948;4.706;2023-02-23T09:00:52;204.63;;;63.22;;
24145;SDS011;12308;50.948;4.706;2023-02-23T09:03:19;213.88;;;62.83;;
24145;SDS011;12308;50.948;4.706;2023-02-23T09:05:45;216.45;;;63.58;;
24145;SDS011;12308;50.948;4.706;2023-02-23T09:08:11;208.80;;;63.22;;
24145;SDS011;12308;50.948;4.706;2023-02-23T09:10:38;206.55;;;61.97;;
24145;SDS011;12308;50.948;4.706;2023-02-23T09:13:04;200.48;;;60.55;;
24145;SDS011;12308;50.948;4.706;2023-02-23T09:15:30;190.77;;;58.30;;
24145;SDS011;12308;50.948;4.706;2023-02-23T09:18:00;204.02;;;62.25;;
24145;SDS011;12308;50.948;4.706;2023-02-23T09:20:26;205.55;;;62.92;;
24145;SDS011;12308;50.948;4.706;2023-02-23T09:22:53;201.07;;;63.35;;
24145;SDS011;12308;50.948;4.706;2023-02-23T09:25:19;210.07;;;63.63;;
24145;SDS011;12308;50.948;4.706;2023-02-23T09:27:50;208.33;;;62.97;;
24145;SDS011;12308;50.948;4.706;2023-02-23T09:30:17;212.18;;;61.85;;
24145;SDS011;12308;50.948;4.706;2023-02-23T09:32:44;215.60;;;64.97;;
24145;SDS011;12308;50.948;4.706;2023-02-23T09:35:11;217.18;;;64.15;;
24145;SDS011;12308;50.948;4.706;2023-02-23T09:37:41;204.77;;;63.50;;
24145;SDS011;12308;50.948;4.706;2023-02-23T09:40:15;209.90;;;62.00;;
24145;SDS011;12308;50.948;4.706;2023-02-23T09:42:45;206.00;;;59.80;;
24145;SDS011;12308;50.948;4.706;2023-02-23T09:45:25;195.93;;;59.20;;
24145;SDS011;12308;50.948;4.706;2023-02-23T09:48:05;198.45;;;61.78;;
24145;SDS011;12308;50.948;4.706;2023-02-23T09:50:49;190.38;;;58.97;;
24145;SDS011;12308;50.948;4.706;2023-02-23T09:56:24;178.20;;;55.40;;
24145;SDS011;12308;50.948;4.706;2023-02-23T09:58:53;177.63;;;56.53;;
24145;SDS011;12308;50.948;4.706;2023-02-23T10:24:11;125.50;;;44.65;;
24145;SDS011;12308;50.948;4.706;2023-02-23T10:26:18;128.38;;;46.20;;
24145;SDS011;12308;50.948;4.706;2023-02-23T10:28:47;126.70;;;45.15;;
24145;SDS011;12308;50.948;4.706;2023-02-23T10:31:23;103.88;;;40.33;;
24145;SDS011;12308;50.948;4.706;2023-02-23T10:33:54;107.68;;;41.22;;
24145;SDS011;12308;50.948;4.706;2023-02-23T10:39:10;104.60;;;39.42;;
24145;SDS011;12308;50.948;4.706;2023-02-23T10:41:37;102.88;;;39.65;;
24145;SDS011;12308;50.948;4.706;2023-02-23T10:44:04;109.10;;;40.90;;
24145;SDS011;12308;50.948;4.706;2023-02-23T10:46:37;105.05;;;39.08;;
24145;SDS011;12308;50.948;4.706;2023-02-23T10:49:05;101.78;;;39.40;;
24145;SDS011;12308;50.948;4.706;2023-02-23T10:51:35;95.82;;;38.08;;
24145;SDS011;12308;50.948;4.706;2023-02-23T10:55:04;87.93;;;36.13;;
24145;SDS011;12308;50.948;4.706;2023-02-23T10:56:59;84.72;;;34.13;;
24145;SDS011;12308;50.948;4.706;2023-02-23T10:59:25;85.25;;;34.03;;
24145;SDS011;12308;50.948;4.706;2023-02-23T11:01:52;79.82;;;33.22;;
24145;SDS011;12308;50.948;4.706;2023-02-23T11:04:22;89.15;;;36.88;;
24145;SDS011;12308;50.948;4.706;2023-02-23T11:07:14;87.55;;;34.88;;
24145;SDS011;12308;50.948;4.706;2023-02-23T11:09:42;90.55;;;34.20;;
24145;SDS011;12308;50.948;4.706;2023-02-23T11:12:18;92.68;;;37.22;;
24145;SDS011;12308;50.948;4.706;2023-02-23T11:14:46;91.65;;;37.25;;
24145;SDS011;12308;50.948;4.706;2023-02-23T11:17:32;86.03;;;36.95;;
24145;SDS011;12308;50.948;4.706;2023-02-23T11:20:00;82.15;;;36.00;;
24145;SDS011;12308;50.948;4.706;2023-02-23T11:22:42;86.13;;;36.47;;
24145;SDS011;12308;50.948;4.706;2023-02-23T11:25:41;88.60;;;36.47;;
24145;SDS011;12308;50.948;4.706;2023-02-23T11:27:59;89.63;;;38.28;;
24145;SDS011;12308;50.948;4.706;2023-02-23T11:30:30;80.03;;;35.22;;
24145;SDS011;12308;50.948;4.706;2023-02-23T11:33:01;81.13;;;36.08;;
24145;SDS011;12308;50.948;4.706;2023-02-23T11:35:35;89.47;;;37.55;;
24145;SDS011;12308;50.948;4.706;2023-02-23T11:40:56;87.90;;;38.65;;
24145;SDS011;12308;50.948;4.706;2023-02-23T11:43:46;92.40;;;39.17;;
24145;SDS011;12308;50.948;4.706;2023-02-23T11:46:16;92.65;;;41.42;;
24145;SDS011;12308;50.948;4.706;2023-02-23T11:49:02;96.82;;;41.60;;
24145;SDS011;12308;50.948;4.706;2023-02-23T11:54:02;94.65;;;42.50;;
24145;SDS011;12308;50.948;4.706;2023-02-23T11:56:31;104.82;;;45.15;;
24145;SDS011;12308;50.948;4.706;2023-02-23T11:58:59;99.72;;;41.33;;
24145;SDS011;12308;50.948;4.706;2023-02-23T12:01:47;90.25;;;40.03;;
24145;SDS011;12308;50.948;4.706;2023-02-23T12:04:34;95.85;;;42.35;;
24145;SDS011;12308;50.948;4.706;2023-02-23T12:09:48;103.28;;;44.47;;
24145;SDS011;12308;50.948;4.706;2023-02-23T12:12:23;104.55;;;43.83;;
24145;SDS011;12308;50.948;4.706;2023-02-23T12:14:53;104.20;;;44.20;;
24145;SDS011;12308;50.948;4.706;2023-02-23T12:17:33;107.18;;;45.33;;
24145;SDS011;12308;50.948;4.706;2023-02-23T12:22:46;105.22;;;43.28;;
24145;SDS011;12308;50.948;4.706;2023-02-23T12:31:10;105.90;;;44.35;;
24145;SDS011;12308;50.948;4.706;2023-02-23T12:34:04;107.55;;;46.17;;
24145;SDS011;12308;50.948;4.706;2023-02-23T12:37:47;111.32;;;48.50;;
24145;SDS011;12308;50.948;4.706;2023-02-23T12:46:04;111.68;;;46.78;;
24145;SDS011;12308;50.948;4.706;2023-02-23T12:51:13;106.53;;;45.88;;
24145;SDS011;12308;50.948;4.706;2023-02-23T12:53:48;103.90;;;45.63;;
24145;SDS011;12308;50.948;4.706;2023-02-23T13:13:06;97.43;;;41.00;;
24145;SDS011;12308;50.948;4.706;2023-02-23T13:18:48;98.20;;;44.13;;
24145;SDS011;12308;50.948;4.706;2023-02-23T13:21:25;93.38;;;41.92;;
24145;SDS011;12308;50.948;4.706;2023-02-23T13:29:42;95.75;;;41.92;;
24145;SDS011;12308;50.948;4.706;2023-02-23T13:32:02;99.47;;;41.85;;
24145;SDS011;12308;50.948;4.706;2023-02-23T13:34:31;97.25;;;45.65;;
24145;SDS011;12308;50.948;4.706;2023-02-23T13:36:59;97.95;;;44.58;;
24145;SDS011;12308;50.948;4.706;2023-02-23T13:39:42;98.40;;;44.83;;
24145;SDS011;12308;50.948;4.706;2023-02-23T13:42:38;99.93;;;42.42;;
24145;SDS011;12308;50.948;4.706;2023-02-23T13:56:57;111.93;;;44.85;;
24145;SDS011;12308;50.948;4.706;2023-02-23T13:59:26;102.90;;;42.97;;
24145;SDS011;12308;50.948;4.706;2023-02-23T14:01:57;113.50;;;44.72;;
24145;SDS011;12308;50.948;4.706;2023-02-23T14:04:27;104.20;;;44.20;;
24145;SDS011;12308;50.948;4.706;2023-02-23T14:07:03;123.97;;;50.78;;
24145;SDS011;12308;50.948;4.706;2023-02-23T14:09:30;125.03;;;51.95;;
24145;SDS011;12308;50.948;4.706;2023-02-23T14:14:41;122.97;;;49.10;;
24145;SDS011;12308;50.948;4.706;2023-02-23T14:25:44;130.20;;;51.88;;
24145;SDS011;12308;50.948;4.706;2023-02-23T14:41:25;125.20;;;52.65;;
24145;SDS011;12308;50.948;4.706;2023-02-23T14:43:59;134.90;;;52.90;;
24145;SDS011;12308;50.948;4.706;2023-02-23T14:46:29;125.35;;;51.53;;
24145;SDS011;12308;50.948;4.706;2023-02-23T14:49:00;125.97;;;53.03;;
24145;SDS011;12308;50.948;4.706;2023-02-23T14:51:36;119.00;;;50.88;;
24145;SDS011;12308;50.948;4.706;2023-02-23T14:54:10;117.63;;;49.45;;
24145;SDS011;12308;50.948;4.706;2023-02-23T14:56:44;115.78;;;51.17;;
24145;SDS011;12308;50.948;4.706;2023-02-23T14:59:16;108.68;;;50.60;;
24145;SDS011;12308;50.948;4.706;2023-02-23T15:01:45;112.88;;;51.30;;
24145;SDS011;12308;50.948;4.706;2023-02-23T15:04:12;103.43;;;46.17;;
24145;SDS011;12308;50.948;4.706;2023-02-23T15:06:40;115.32;;;48.65;;
24145;SDS011;12308;50.948;4.706;2023-02-23T15:09:14;112.78;;;45.35;;
24145;SDS011;12308;50.948;4.706;2023-02-23T15:11:43;102.68;;;45.97;;
24145;SDS011;12308;50.948;4.706;2023-02-23T15:14:13;100.40;;;44.58;;
24145;SDS011;12308;50.948;4.706;2023-02-23T15:16:40;101.85;;;44.50;;
24145;SDS011;12308;50.948;4.706;2023-02-23T15:19:09;85.78;;;38.17;;
24145;SDS011;12308;50.948;4.706;2023-02-23T15:21:42;78.78;;;38.58;;
24145;SDS011;12308;50.948;4.706;2023-02-23T15:24:20;82.78;;;39.53;;
24145;SDS011;12308;50.948;4.706;2023-02-23T15:26:50;83.63;;;39.50;;
24145;SDS011;12308;50.948;4.706;2023-02-23T15:29:17;72.80;;;35.13;;
24145;SDS011;12308;50.948;4.706;2023-02-23T15:31:45;69.00;;;33.53;;
24145;SDS011;12308;50.948;4.706;2023-02-23T15:34:17;75.13;;;34.60;;
24145;SDS011;12308;50.948;4.706;2023-02-23T15:36:48;63.10;;;31.63;;
24145;SDS011;12308;50.948;4.706;2023-02-23T15:42:21;48.83;;;27.65;;
24145;SDS011;12308;50.948;4.706;2023-02-23T15:45:34;52.10;;;26.50;;
24145;SDS011;12308;50.948;4.706;2023-02-23T15:47:52;46.33;;;24.10;;
24145;SDS011;12308;50.948;4.706;2023-02-23T15:50:23;44.65;;;25.75;;
24145;SDS011;12308;50.948;4.706;2023-02-23T15:52:56;44.55;;;25.70;;
24145;SDS011;12308;50.948;4.706;2023-02-23T15:55:34;40.78;;;23.45;;
24145;SDS011;12308;50.948;4.706;2023-02-23T15:58:09;37.85;;;20.63;;
24145;SDS011;12308;50.948;4.706;2023-02-23T16:00:41;39.85;;;23.17;;
24145;SDS011;12308;50.948;4.706;2023-02-23T16:03:20;34.97;;;23.27;;
24145;SDS011;12308;50.948;4.706;2023-02-23T16:05:54;36.58;;;22.55;;
24145;SDS011;12308;50.948;4.706;2023-02-23T16:08:24;34.90;;;22.92;;
24145;SDS011;12308;50.948;4.706;2023-02-23T16:10:52;38.47;;;21.63;;
24145;SDS011;12308;50.948;4.706;2023-02-23T16:13:26;36.45;;;23.88;;
24145;SDS011;12308;50.948;4.706;2023-02-23T16:15:52;39.83;;;24.27;;
24145;SDS011;12308;50.948;4.706;2023-02-23T16:18:20;35.20;;;21.88;;
24145;SDS011;12308;50.948;4.706;2023-02-23T16:20:57;42.22;;;23.65;;
24145;SDS011;12308;50.948;4.706;2023-02-23T16:23:34;37.67;;;22.50;;
24145;SDS011;12308;50.948;4.706;2023-02-23T16:26:09;41.60;;;24.33;;
24145;SDS011;12308;50.948;4.706;2023-02-23T16:28:40;34.55;;;19.73;;
24145;SDS011;12308;50.948;4.706;2023-02-23T16:31:09;38.60;;;22.63;;
24145;SDS011;12308;50.948;4.706;2023-02-23T16:33:44;37.38;;;20.50;;
24145;SDS011;12308;50.948;4.706;2023-02-23T16:36:22;36.70;;;21.13;;
24145;SDS011;12308;50.948;4.706;2023-02-23T16:38:57;36.42;;;21.60;;
24145;SDS011;12308;50.948;4.706;2023-02-23T16:41:31;40.13;;;21.42;;
24145;SDS011;12308;50.948;4.706;2023-02-23T16:43:59;41.42;;;21.20;;
24145;SDS011;12308;50.948;4.706;2023-02-23T16:46:30;36.22;;;20.50;;
24145;SDS011;12308;50.948;4.706;2023-02-23T16:49:17;40.80;;;21.20;;
24145;SDS011;12308;50.948;4.706;2023-02-23T16:51:44;38.25;;;21.67;;
24145;SDS011;12308;50.948;4.706;2023-02-23T16:54:10;44.80;;;23.52;;
24145;SDS011;12308;50.948;4.706;2023-02-23T16:56:37;39.60;;;20.58;;
24145;SDS011;12308;50.948;4.706;2023-02-23T16:59:04;42.72;;;20.67;;
24145;SDS011;12308;50.948;4.706;2023-02-23T17:01:34;38.20;;;20.48;;
24145;SDS011;12308;50.948;4.706;2023-02-23T17:04:00;40.15;;;22.05;;
24145;SDS011;12308;50.948;4.706;2023-02-23T17:06:26;40.75;;;22.35;;
24145;SDS011;12308;50.948;4.706;2023-02-23T17:08:51;38.65;;;20.95;;
24145;SDS011;12308;50.948;4.706;2023-02-23T17:11:17;37.60;;;21.30;;
24145;SDS011;12308;50.948;4.706;2023-02-23T17:13:43;36.90;;;20.30;;
24145;SDS011;12308;50.948;4.706;2023-02-23T17:16:09;40.85;;;21.75;;
24145;SDS011;12308;50.948;4.706;2023-02-23T17:18:36;39.92;;;20.65;;
24145;SDS011;12308;50.948;4.706;2023-02-23T17:21:04;37.08;;;19.15;;
24145;SDS011;12308;50.948;4.706;2023-02-23T17:26:15;32.45;;;17.77;;